Berryville, Texas
Current Conditions -  °F | °C
As of 9:55 AM on Thursday 27 Nov 2014 (Local Time) from KPSN Reporting Station
Clear Clear  
Wind Chill: 51°   Ceiling: Unl
Heat Index: 51°   Visibility: 10mi
Dew Point: 27°   Wind: 9mph
Humidity: 40%   Direction: 40°NE
Pressure: 30.55"   Gusts: NA
Location:  32.0056°N, 95.5543°W
Report Text: KPSN 271555Z AUTO 04008KT 10SM CLR 10/M02 A3055 RMK AO2 T01051028
Loading
Personal Weather Stations






























Interactive Weather Map New forecast layout! Learn more

10-Day Weather Forecast

Advertisements
Track Severe Weather on mobile